Sincerity Ace — 3FFD7 — position and weather

sailwx.info

Track history (hours):
 
Tides and Currents Weather Stations Pressure Air Temp Water Temp Dewpoint Dewpoint Depression Visibility Wind Speed Wind Dir Waves Ship Positions

Sincerity Ace

Last reported at 2016-Feb-05 14:23 UTC. Time now 2016-Feb-06 07:05 UTC.
Position N 35°37' E 141°03'.

Length 200 m; draft 9.5 m.

Type: Cargo ship. MMSI: 351690000.

Date/timePositionNaut miles runAvg speedWind from/ knotsBaromVisibWave heightAir tempDewpointWater temp
2016-Feb-05 14:23N 35°37' E 141°03'1517.5
2016-Feb-05 13:33N 35°25' E 140°52'1817.4
2016-Feb-05 12:30N 35°11' E 140°39'1717.4
2016-Feb-05 11:33N 35°01' E 140°23'1918.9
2016-Feb-05 10:33N 34°51' E 140°04'1616.4
2016-Feb-05 09:33N 34°53' E 139°44'1515.1
2016-Feb-05 08:33N 35°09' E 139°44'1010.0
2016-Feb-05 07:33N 35°18' E 139°43'3 3.3
2016-Feb-05 06:30N 35°19' E 139°39'0 0.0
2016-Feb-05 05:33N 35°19' E 139°39'0 0.0
2016-Feb-05 04:33N 35°19' E 139°39'0 0.0
2016-Feb-05 03:33N 35°19' E 139°39'0 0.0
2016-Feb-05 02:30N 35°19' E 139°39'0 0.0
2016-Feb-05 01:33N 35°19' E 139°39'0 0.0
2016-Feb-05 00:33N 35°19' E 139°39'0 0.0
2016-Feb-04 23:27N 35°19' E 139°39'0 0.0
2016-Feb-04 22:33N 35°19' E 139°39'6 5.7
2016-Feb-04 21:34N 35°17' E 139°46'1010.0
2016-Feb-04 20:33N 35°07' E 139°46'10 9.9
2016-Feb-04 19:32N 34°57' E 139°43'10 9.8
2016-Feb-04 18:33N 34°49' E 139°49'1313.1
2016-Feb-04 17:32N 34°50' E 140°05'1212.1
2016-Feb-04 16:33N 34°55' E 140°19'1514.5
2016-Feb-04 15:33N 35°05' E 140°31'1814.6
2016-Feb-04 14:17N 35°18' E 140°47'4013.9
2016-Feb-04 11:23N 35°58' E 140°56'21 1.9
2016-Feb-04 00:08N 36°18' E 140°46'1017.7
2016-Feb-03 23:33N 36°08' E 140°50'1818.3
2016-Feb-03 22:33N 35°51' E 140°56'1817.7
2016-Feb-03 21:32N 35°33' E 140°57'2018.5
2016-Feb-03 20:28N 35°16' E 140°44'1718.4
2016-Feb-03 19:33N 35°03' E 140°31'1717.5
2016-Feb-03 18:34N 34°55' E 140°13'1818.0
2016-Feb-03 17:34N 34°46' E 139°54'248 8.3
2016-Feb-02 11:33N 34°02' E 134°57'1514.6
2016-Feb-02 10:33N 34°16' E 134°58'1616.0
2016-Feb-02 09:33N 34°31' E 135°05'8 8.5
2016-Feb-02 08:33N 34°36' E 134°57'  
2016-Jan-28 05:32N 35°03' E 139°42'1313.0
2016-Jan-28 04:33N 35°15' E 139°46'1010.3
2016-Jan-28 03:33N 35°25' E 139°42'3 2.8
2016-Jan-28 02:33N 35°28' E 139°41'0 0.0
2016-Jan-28 01:33N 35°28' E 139°41'0 0.0
2016-Jan-28 00:33N 35°28' E 139°41'0 0.0
2016-Jan-27 23:33N 35°28' E 139°41'0 0.0
2016-Jan-27 22:33N 35°28' E 139°41'0 0.0
2016-Jan-27 21:33N 35°28' E 139°41'0 0.0
2016-Jan-27 20:33N 35°28' E 139°41'0 0.0
2016-Jan-27 19:33N 35°28' E 139°41'0 0.0
2016-Jan-27 18:33N 35°28' E 139°41'0 0.0
2016-Jan-27 17:33N 35°28' E 139°41'0 0.0
2016-Jan-27 16:33N 35°28' E 139°41'0 0.0
2016-Jan-27 15:33N 35°28' E 139°41'0 0.0
2016-Jan-27 14:33N 35°28' E 139°41'0 0.0
2016-Jan-27 13:33N 35°28' E 139°41'0 0.0
2016-Jan-27 12:33N 35°28' E 139°41'0 0.0
2016-Jan-27 11:33N 35°28' E 139°41'0 0.0
2016-Jan-27 10:33N 35°28' E 139°41'0 0.0
2016-Jan-27 09:33N 35°28' E 139°41'0 0.0
2016-Jan-27 08:33N 35°28' E 139°41'2 1.8
2016-Jan-27 07:33N 35°27' E 139°43'1 1.2
2016-Jan-27 06:31N 35°26' E 139°42'0 0.0
2016-Jan-27 05:31N 35°26' E 139°42'0 0.0
2016-Jan-27 04:31N 35°26' E 139°42'0 0.0
2016-Jan-27 03:31N 35°26' E 139°42'0 0.0
2016-Jan-27 02:31N 35°26' E 139°42'0 0.0
2016-Jan-27 01:31N 35°26' E 139°42'0 0.0
2016-Jan-27 00:31N 35°26' E 139°42'0 0.0
2016-Jan-26 23:31N 35°26' E 139°42'0 0.0
2016-Jan-26 22:31N 35°26' E 139°42'0 0.0
2016-Jan-26 21:28N 35°26' E 139°42'0 0.0
2016-Jan-26 20:31N 35°26' E 139°42'0 0.0
2016-Jan-26 19:31N 35°26' E 139°42'0 0.0
2016-Jan-26 18:31N 35°26' E 139°42'0 0.0
2016-Jan-26 17:31N 35°26' E 139°42'0 0.0
2016-Jan-26 16:31N 35°26' E 139°42'0 0.0
2016-Jan-26 15:31N 35°26' E 139°42'0 0.0
2016-Jan-26 14:31N 35°26' E 139°42'  
Track history (hours):
 
Tides and Currents Weather Stations Pressure Air Temp Water Temp Dewpoint Dewpoint Depression Visibility Wind Speed Wind Dir Waves Ship Positions

Sincerity Ace

Last reported at 2016-Feb-05 14:23 UTC. Time now 2016-Feb-06 07:05 UTC.
Position N 35°37' E 141°03'.

Length 200 m; draft 9.5 m.

Type: Cargo ship. MMSI: 351690000.

Date/timePositionNaut miles runAvg speedWind from/ knotsBaromVisibWave heightAir tempDewpointWater temp
2016-Feb-05 14:23N 35°37' E 141°03'1517.5
2016-Feb-05 13:33N 35°25' E 140°52'1817.4
2016-Feb-05 12:30N 35°11' E 140°39'1717.4
2016-Feb-05 11:33N 35°01' E 140°23'1918.9
2016-Feb-05 10:33N 34°51' E 140°04'1616.4
2016-Feb-05 09:33N 34°53' E 139°44'1515.1
2016-Feb-05 08:33N 35°09' E 139°44'1010.0
2016-Feb-05 07:33N 35°18' E 139°43'3 3.3
2016-Feb-05 06:30N 35°19' E 139°39'0 0.0
2016-Feb-05 05:33N 35°19' E 139°39'0 0.0
2016-Feb-05 04:33N 35°19' E 139°39'0 0.0
2016-Feb-05 03:33N 35°19' E 139°39'0 0.0
2016-Feb-05 02:30N 35°19' E 139°39'0 0.0
2016-Feb-05 01:33N 35°19' E 139°39'0 0.0
2016-Feb-05 00:33N 35°19' E 139°39'0 0.0
2016-Feb-04 23:27N 35°19' E 139°39'0 0.0
2016-Feb-04 22:33N 35°19' E 139°39'6 5.7
2016-Feb-04 21:34N 35°17' E 139°46'1010.0
2016-Feb-04 20:33N 35°07' E 139°46'10 9.9
2016-Feb-04 19:32N 34°57' E 139°43'10 9.8
2016-Feb-04 18:33N 34°49' E 139°49'1313.1
2016-Feb-04 17:32N 34°50' E 140°05'1212.1
2016-Feb-04 16:33N 34°55' E 140°19'1514.5
2016-Feb-04 15:33N 35°05' E 140°31'1814.6
2016-Feb-04 14:17N 35°18' E 140°47'4013.9
2016-Feb-04 11:23N 35°58' E 140°56'21 1.9
2016-Feb-04 00:08N 36°18' E 140°46'1017.7
2016-Feb-03 23:33N 36°08' E 140°50'1818.3
2016-Feb-03 22:33N 35°51' E 140°56'1817.7
2016-Feb-03 21:32N 35°33' E 140°57'2018.5
2016-Feb-03 20:28N 35°16' E 140°44'1718.4
2016-Feb-03 19:33N 35°03' E 140°31'1717.5
2016-Feb-03 18:34N 34°55' E 140°13'1818.0
2016-Feb-03 17:34N 34°46' E 139°54'248 8.3
2016-Feb-02 11:33N 34°02' E 134°57'1514.6
2016-Feb-02 10:33N 34°16' E 134°58'1616.0
2016-Feb-02 09:33N 34°31' E 135°05'8 8.5
2016-Feb-02 08:33N 34°36' E 134°57'  
2016-Jan-28 05:32N 35°03' E 139°42'1313.0
2016-Jan-28 04:33N 35°15' E 139°46'1010.3
2016-Jan-28 03:33N 35°25' E 139°42'3 2.8
2016-Jan-28 02:33N 35°28' E 139°41'0 0.0
2016-Jan-28 01:33N 35°28' E 139°41'0 0.0
2016-Jan-28 00:33N 35°28' E 139°41'0 0.0
2016-Jan-27 23:33N 35°28' E 139°41'0 0.0
2016-Jan-27 22:33N 35°28' E 139°41'0 0.0
2016-Jan-27 21:33N 35°28' E 139°41'0 0.0
2016-Jan-27 20:33N 35°28' E 139°41'0 0.0
2016-Jan-27 19:33N 35°28' E 139°41'0 0.0
2016-Jan-27 18:33N 35°28' E 139°41'0 0.0
2016-Jan-27 17:33N 35°28' E 139°41'0 0.0
2016-Jan-27 16:33N 35°28' E 139°41'0 0.0
2016-Jan-27 15:33N 35°28' E 139°41'0 0.0
2016-Jan-27 14:33N 35°28' E 139°41'0 0.0
2016-Jan-27 13:33N 35°28' E 139°41'0 0.0
2016-Jan-27 12:33N 35°28' E 139°41'0 0.0
2016-Jan-27 11:33N 35°28' E 139°41'0 0.0
2016-Jan-27 10:33N 35°28' E 139°41'0 0.0
2016-Jan-27 09:33N 35°28' E 139°41'0 0.0
2016-Jan-27 08:33N 35°28' E 139°41'2 1.8
2016-Jan-27 07:33N 35°27' E 139°43'1 1.2
2016-Jan-27 06:31N 35°26' E 139°42'0 0.0
2016-Jan-27 05:31N 35°26' E 139°42'0 0.0
2016-Jan-27 04:31N 35°26' E 139°42'0 0.0
2016-Jan-27 03:31N 35°26' E 139°42'0 0.0
2016-Jan-27 02:31N 35°26' E 139°42'0 0.0
2016-Jan-27 01:31N 35°26' E 139°42'0 0.0
2016-Jan-27 00:31N 35°26' E 139°42'0 0.0
2016-Jan-26 23:31N 35°26' E 139°42'0 0.0
2016-Jan-26 22:31N 35°26' E 139°42'0 0.0
2016-Jan-26 21:28N 35°26' E 139°42'0 0.0
2016-Jan-26 20:31N 35°26' E 139°42'0 0.0
2016-Jan-26 19:31N 35°26' E 139°42'0 0.0
2016-Jan-26 18:31N 35°26' E 139°42'0 0.0
2016-Jan-26 17:31N 35°26' E 139°42'0 0.0
2016-Jan-26 16:31N 35°26' E 139°42'0 0.0
2016-Jan-26 15:31N 35°26' E 139°42'0 0.0
2016-Jan-26 14:31N 35°26' E 139°42'  

Dump ship's entire track history